sensor_id;sensor_type;location;lat;lon;timestamp;pressure;altitude;pressure_sealevel;temperature;humidity
72587;BME280;60621;49.576;11.024;2023-03-08T00:00:22;96830.56;;;5.63;51.36
72587;BME280;60621;49.576;11.024;2023-03-08T00:01:23;96827.47;;;5.54;51.62
72587;BME280;60621;49.576;11.024;2023-03-08T00:02:25;96824.94;;;5.61;51.95
72587;BME280;60621;49.576;11.024;2023-03-08T00:03:30;96833.88;;;5.60;51.79
72587;BME280;60621;49.576;11.024;2023-03-08T00:04:31;96833.44;;;5.51;51.99
72587;BME280;60621;49.576;11.024;2023-03-08T00:05:36;96827.09;;;5.55;52.26
72587;BME280;60621;49.576;11.024;2023-03-08T00:06:37;96834.25;;;5.58;51.61
72587;BME280;60621;49.576;11.024;2023-03-08T00:07:42;96829.06;;;5.62;51.64
72587;BME280;60621;49.576;11.024;2023-03-08T00:08:43;96838.00;;;5.57;51.93
72587;BME280;60621;49.576;11.024;2023-03-08T00:09:46;96842.09;;;5.58;51.80
72587;BME280;60621;49.576;11.024;2023-03-08T00:10:47;96837.94;;;5.54;51.96
72587;BME280;60621;49.576;11.024;2023-03-08T00:11:49;96843.22;;;5.57;52.19
72587;BME280;60621;49.576;11.024;2023-03-08T00:12:50;96840.25;;;5.59;52.33
72587;BME280;60621;49.576;11.024;2023-03-08T00:13:52;96843.69;;;5.67;52.37
72587;BME280;60621;49.576;11.024;2023-03-08T00:14:55;96836.31;;;5.76;51.83
72587;BME280;60621;49.576;11.024;2023-03-08T00:16:05;96838.16;;;5.72;51.55
72587;BME280;60621;49.576;11.024;2023-03-08T00:17:10;96844.19;;;5.76;51.51
72587;BME280;60621;49.576;11.024;2023-03-08T00:18:12;96840.25;;;5.59;51.85
72587;BME280;60621;49.576;11.024;2023-03-08T00:19:14;96844.00;;;5.61;52.10
72587;BME280;60621;49.576;11.024;2023-03-08T00:20:18;96845.47;;;5.59;51.60
72587;BME280;60621;49.576;11.024;2023-03-08T00:21:20;96853.72;;;5.61;51.77
72587;BME280;60621;49.576;11.024;2023-03-08T00:22:22;96842.50;;;5.60;52.06
72587;BME280;60621;49.576;11.024;2023-03-08T00:23:26;96840.25;;;5.59;52.07
72587;BME280;60621;49.576;11.024;2023-03-08T00:24:28;96845.09;;;5.57;51.98
72587;BME280;60621;49.576;11.024;2023-03-08T00:25:29;96842.09;;;5.58;51.82
72587;BME280;60621;49.576;11.024;2023-03-08T00:26:33;96829.72;;;5.55;52.10
72587;BME280;60621;49.576;11.024;2023-03-08T00:27:36;96837.19;;;5.53;51.75
72587;BME280;60621;49.576;11.024;2023-03-08T00:28:45;96838.38;;;5.59;52.34
72587;BME280;60621;49.576;11.024;2023-03-08T00:29:47;96854.13;;;5.63;51.69
72587;BME280;60621;49.576;11.024;2023-03-08T00:31:03;96841.84;;;5.67;51.49
72587;BME280;60621;49.576;11.024;2023-03-08T00:32:05;96842.53;;;5.64;51.40
72587;BME280;60621;49.576;11.024;2023-03-08T00:33:06;96847.44;;;5.65;51.51
72587;BME280;60621;49.576;11.024;2023-03-08T00:34:08;96839.91;;;5.64;51.69
72587;BME280;60621;49.576;11.024;2023-03-08T00:35:10;96844.00;;;5.61;51.55
72587;BME280;60621;49.576;11.024;2023-03-08T00:36:17;96851.94;;;5.69;51.95
72587;BME280;60621;49.576;11.024;2023-03-08T00:37:19;96843.16;;;5.54;51.53
72587;BME280;60621;49.576;11.024;2023-03-08T00:38:21;96851.81;;;5.58;51.92
72587;BME280;60621;49.576;11.024;2023-03-08T00:39:22;96841.72;;;5.56;51.90
72587;BME280;60621;49.576;11.024;2023-03-08T00:40:24;96845.72;;;5.47;52.09
72587;BME280;60621;49.576;11.024;2023-03-08T00:41:25;96840.50;;;5.50;52.13
72587;BME280;60621;49.576;11.024;2023-03-08T00:42:27;96842.38;;;5.50;52.13
72587;BME280;60621;49.576;11.024;2023-03-08T00:43:29;96843.53;;;5.52;52.08
72587;BME280;60621;49.576;11.024;2023-03-08T00:44:30;96840.50;;;5.50;51.55
72587;BME280;60621;49.576;11.024;2023-03-08T00:45:32;96846.09;;;5.49;52.41
72587;BME280;60621;49.576;11.024;2023-03-08T00:46:33;96837.56;;;5.52;52.17
72587;BME280;60621;49.576;11.024;2023-03-08T00:47:35;96836.34;;;5.46;51.98
72587;BME280;60621;49.576;11.024;2023-03-08T00:48:38;96841.53;;;5.42;52.06
72587;BME280;60621;49.576;11.024;2023-03-08T00:49:39;96851.25;;;5.42;51.88
72587;BME280;60621;49.576;11.024;2023-03-08T00:50:41;96849.41;;;5.42;51.93
72587;BME280;60621;49.576;11.024;2023-03-08T00:51:51;96848.66;;;5.45;52.25
72587;BME280;60621;49.576;11.024;2023-03-08T00:52:55;96845.63;;;5.39;52.43
72587;BME280;60621;49.576;11.024;2023-03-08T00:53:57;96845.25;;;5.41;52.14
72587;BME280;60621;49.576;11.024;2023-03-08T00:54:59;96853.56;;;5.47;51.91
72587;BME280;60621;49.576;11.024;2023-03-08T00:56:01;96840.50;;;5.50;51.94
72587;BME280;60621;49.576;11.024;2023-03-08T00:57:02;96833.50;;;5.58;51.69
72587;BME280;60621;49.576;11.024;2023-03-08T00:58:04;96840.66;;;5.61;51.75
72587;BME280;60621;49.576;11.024;2023-03-08T00:59:06;96844.41;;;5.63;51.69
72587;BME280;60621;49.576;11.024;2023-03-08T01:00:08;96846.28;;;5.63;51.40
72587;BME280;60621;49.576;11.024;2023-03-08T01:01:15;96846.69;;;5.69;51.29
72587;BME280;60621;49.576;11.024;2023-03-08T01:02:17;96847.34;;;5.58;51.64
72587;BME280;60621;49.576;11.024;2023-03-08T01:03:20;96847.38;;;5.62;51.91
72587;BME280;60621;49.576;11.024;2023-03-08T01:04:22;96845.91;;;5.64;51.40
72587;BME280;60621;49.576;11.024;2023-03-08T01:05:23;96849.63;;;5.63;51.38
72587;BME280;60621;49.576;11.024;2023-03-08T01:06:25;96837.72;;;5.66;51.33
72587;BME280;60621;49.576;11.024;2023-03-08T01:07:26;96837.34;;;5.68;51.36
72587;BME280;60621;49.576;11.024;2023-03-08T01:08:29;96842.25;;;5.73;51.09
72587;BME280;60621;49.576;11.024;2023-03-08T01:09:30;96841.56;;;5.76;51.31
72587;BME280;60621;49.576;11.024;2023-03-08T01:10:32;96835.59;;;5.79;51.73
72587;BME280;60621;49.576;11.024;2023-03-08T01:11:34;96849.72;;;5.71;51.09
72587;BME280;60621;49.576;11.024;2023-03-08T01:12:36;96843.00;;;5.73;51.24
72587;BME280;60621;49.576;11.024;2023-03-08T01:13:38;96840.34;;;5.66;51.26
72587;BME280;60621;49.576;11.024;2023-03-08T01:14:40;96849.69;;;5.67;51.31
72587;BME280;60621;49.576;11.024;2023-03-08T01:15:41;96839.53;;;5.62;51.34
72587;BME280;60621;49.576;11.024;2023-03-08T01:16:43;96850.06;;;5.69;50.98
72587;BME280;60621;49.576;11.024;2023-03-08T01:17:44;96842.63;;;5.71;51.15
72587;BME280;60621;49.576;11.024;2023-03-08T01:18:46;96854.97;;;5.71;50.99
72587;BME280;60621;49.576;11.024;2023-03-08T01:19:48;96856.06;;;5.70;51.04
72587;BME280;60621;49.576;11.024;2023-03-08T01:20:56;96849.38;;;5.72;51.21
72587;BME280;60621;49.576;11.024;2023-03-08T01:21:57;96847.53;;;5.76;50.81
72587;BME280;60621;49.576;11.024;2023-03-08T01:22:59;96850.53;;;5.78;50.63
72587;BME280;60621;49.576;11.024;2023-03-08T01:24:01;96848.69;;;5.79;50.95
72587;BME280;60621;49.576;11.024;2023-03-08T01:25:02;96839.38;;;5.81;50.62
72587;BME280;60621;49.576;11.024;2023-03-08T01:26:07;96845.31;;;5.78;50.73
72587;BME280;60621;49.576;11.024;2023-03-08T01:27:09;96846.06;;;5.79;50.93
72587;BME280;60621;49.576;11.024;2023-03-08T01:28:10;96847.22;;;5.81;50.89
72587;BME280;60621;49.576;11.024;2023-03-08T01:29:12;96847.94;;;5.78;50.63
72587;BME280;60621;49.576;11.024;2023-03-08T01:30:13;96849.47;;;5.79;50.43
72587;BME280;60621;49.576;11.024;2023-03-08T01:31:23;96843.91;;;5.84;51.12
72587;BME280;60621;49.576;11.024;2023-03-08T01:32:25;96846.19;;;5.89;50.73
72587;BME280;60621;49.576;11.024;2023-03-08T01:33:26;96849.22;;;5.92;50.51
72587;BME280;60621;49.576;11.024;2023-03-08T01:34:28;96843.91;;;5.84;50.79
72587;BME280;60621;49.576;11.024;2023-03-08T01:35:30;96849.53;;;5.86;50.35
72587;BME280;60621;49.576;11.024;2023-03-08T01:36:31;96852.78;;;5.76;50.79
72587;BME280;60621;49.576;11.024;2023-03-08T01:37:33;96854.69;;;5.79;51.19
72587;BME280;60621;49.576;11.024;2023-03-08T01:38:35;96840.09;;;5.78;50.86
72587;BME280;60621;49.576;11.024;2023-03-08T01:39:37;96853.56;;;5.80;50.61
72587;BME280;60621;49.576;11.024;2023-03-08T01:40:38;96849.47;;;5.83;50.54
72587;BME280;60621;49.576;11.024;2023-03-08T01:41:40;96842.25;;;5.73;50.56
72587;BME280;60621;49.576;11.024;2023-03-08T01:42:41;96833.66;;;5.72;50.83
72587;BME280;60621;49.576;11.024;2023-03-08T01:43:43;96836.66;;;5.71;50.75
72587;BME280;60621;49.576;11.024;2023-03-08T01:44:49;96835.13;;;5.70;50.71
72587;BME280;60621;49.576;11.024;2023-03-08T01:46:03;96840.66;;;5.64;50.67
72587;BME280;60621;49.576;11.024;2023-03-08T01:47:12;96840.34;;;5.70;50.80
72587;BME280;60621;49.576;11.024;2023-03-08T01:48:19;96836.91;;;5.62;51.03
72587;BME280;60621;49.576;11.024;2023-03-08T01:49:32;96849.63;;;5.63;50.61
72587;BME280;60621;49.576;11.024;2023-03-08T01:50:33;96837.34;;;5.68;50.71
72587;BME280;60621;49.576;11.024;2023-03-08T01:51:56;96833.94;;;5.63;50.70
72587;BME280;60621;49.576;11.024;2023-03-08T01:53:00;96830.19;;;5.61;50.82
72587;BME280;60621;49.576;11.024;2023-03-08T01:54:07;96832.06;;;5.60;50.77
72587;BME280;60621;49.576;11.024;2023-03-08T01:55:11;96835.41;;;5.61;50.97
72587;BME280;60621;49.576;11.024;2023-03-08T01:56:14;96832.34;;;5.55;51.01
72587;BME280;60621;49.576;11.024;2023-03-08T01:57:36;96834.31;;;5.62;50.92
72587;BME280;60621;49.576;11.024;2023-03-08T01:58:39;96843.66;;;5.63;50.76
72587;BME280;60621;49.576;11.024;2023-03-08T01:59:42;96828.28;;;5.58;50.69
72587;BME280;60621;49.576;11.024;2023-03-08T02:00:45;96835.38;;;5.57;50.73
72587;BME280;60621;49.576;11.024;2023-03-08T02:01:47;96837.88;;;5.47;51.21
72587;BME280;60621;49.576;11.024;2023-03-08T02:02:53;96840.13;;;5.48;51.21
72587;BME280;60621;49.576;11.024;2023-03-08T02:03:56;96840.50;;;5.50;51.34
72587;BME280;60621;49.576;11.024;2023-03-08T02:04:58;96840.19;;;5.55;50.83
72587;BME280;60621;49.576;11.024;2023-03-08T02:06:00;96833.47;;;5.54;51.08
72587;BME280;60621;49.576;11.024;2023-03-08T02:07:03;96839.09;;;5.56;50.61
72587;BME280;60621;49.576;11.024;2023-03-08T02:08:04;96842.09;;;5.58;51.14
72587;BME280;60621;49.576;11.024;2023-03-08T02:09:06;96833.19;;;5.63;50.62
72587;BME280;60621;49.576;11.024;2023-03-08T02:10:09;96831.69;;;5.62;50.67
72587;BME280;60621;49.576;11.024;2023-03-08T02:11:11;96831.31;;;5.63;50.76
72587;BME280;60621;49.576;11.024;2023-03-08T02:12:14;96829.06;;;5.62;50.59
72587;BME280;60621;49.576;11.024;2023-03-08T02:13:18;96834.25;;;5.58;50.67
72587;BME280;60621;49.576;11.024;2023-03-08T02:14:20;96826.84;;;5.64;50.71
72587;BME280;60621;49.576;11.024;2023-03-08T02:15:22;96821.28;;;5.69;50.52
72587;BME280;60621;49.576;11.024;2023-03-08T02:16:23;96826.53;;;5.69;50.83
72587;BME280;60621;49.576;11.024;2023-03-08T02:17:25;96829.22;;;5.76;50.68
72587;BME280;60621;49.576;11.024;2023-03-08T02:18:27;96833.31;;;5.74;50.48
72587;BME280;60621;49.576;11.024;2023-03-08T02:19:38;96828.81;;;5.71;50.61
72587;BME280;60621;49.576;11.024;2023-03-08T02:20:42;96821.38;;;5.76;50.44
72587;BME280;60621;49.576;11.024;2023-03-08T02:21:43;96825.13;;;5.79;50.27
72587;BME280;60621;49.576;11.024;2023-03-08T02:22:45;96829.19;;;5.73;50.38
72587;BME280;60621;49.576;11.024;2023-03-08T02:23:47;96825.38;;;5.67;50.64
72587;BME280;60621;49.576;11.024;2023-03-08T02:24:49;96827.09;;;5.55;50.83
72587;BME280;60621;49.576;11.024;2023-03-08T02:25:53;96830.41;;;5.49;50.73
72587;BME280;60621;49.576;11.024;2023-03-08T02:27:01;96814.75;;;5.52;50.85
72587;BME280;60621;49.576;11.024;2023-03-08T02:28:03;96816.63;;;5.52;51.28
72587;BME280;60621;49.576;11.024;2023-03-08T02:29:05;96818.50;;;5.51;51.06
72587;BME280;60621;49.576;11.024;2023-03-08T02:30:09;96810.97;;;5.46;51.20
72587;BME280;60621;49.576;11.024;2023-03-08T02:31:11;96811.34;;;5.48;51.17
72587;BME280;60621;49.576;11.024;2023-03-08T02:32:13;96810.22;;;5.49;51.00
72587;BME280;60621;49.576;11.024;2023-03-08T02:33:16;96815.91;;;5.55;50.91
72587;BME280;60621;49.576;11.024;2023-03-08T02:34:18;96816.38;;;5.64;50.93
72587;BME280;60621;49.576;11.024;2023-03-08T02:35:20;96816.78;;;5.66;50.97
72587;BME280;60621;49.576;11.024;2023-03-08T02:36:22;96811.13;;;5.60;50.63
72587;BME280;60621;49.576;11.024;2023-03-08T02:37:28;96814.44;;;5.57;50.55
72587;BME280;60621;49.576;11.024;2023-03-08T02:38:29;96809.84;;;5.47;51.05
72587;BME280;60621;49.576;11.024;2023-03-08T02:39:31;96803.88;;;5.50;50.75
72587;BME280;60621;49.576;11.024;2023-03-08T02:40:32;96805.00;;;5.49;50.98
72587;BME280;60621;49.576;11.024;2023-03-08T02:41:34;96798.69;;;5.54;51.14
72587;BME280;60621;49.576;11.024;2023-03-08T02:42:35;96803.56;;;5.55;51.14
72587;BME280;60621;49.576;11.024;2023-03-08T02:43:37;96799.53;;;5.61;50.98
72587;BME280;60621;49.576;11.024;2023-03-08T02:44:39;96795.78;;;5.59;50.90
72587;BME280;60621;49.576;11.024;2023-03-08T02:45:40;96794.22;;;5.54;50.89
72587;BME280;60621;49.576;11.024;2023-03-08T02:46:42;96794.50;;;5.46;51.41
72587;BME280;60621;49.576;11.024;2023-03-08T02:47:43;96795.59;;;5.45;51.45
72587;BME280;60621;49.576;11.024;2023-03-08T02:48:45;96790.38;;;5.45;51.43
72587;BME280;60621;49.576;11.024;2023-03-08T02:49:47;96798.59;;;5.43;51.55
72587;BME280;60621;49.576;11.024;2023-03-08T02:50:48;96795.28;;;5.46;51.33
72587;BME280;60621;49.576;11.024;2023-03-08T02:51:50;96797.88;;;5.46;51.71
72587;BME280;60621;49.576;11.024;2023-03-08T02:52:51;96791.94;;;5.49;51.92
72587;BME280;60621;49.576;11.024;2023-03-08T02:53:52;96807.72;;;5.60;51.76
72587;BME280;60621;49.576;11.024;2023-03-08T02:54:55;96801.69;;;5.52;51.32
72587;BME280;60621;49.576;11.024;2023-03-08T02:55:57;96798.38;;;5.59;51.46
72587;BME280;60621;49.576;11.024;2023-03-08T02:56:58;96797.88;;;5.46;51.50
72587;BME280;60621;49.576;11.024;2023-03-08T02:58:01;96805.63;;;5.39;51.98
72587;BME280;60621;49.576;11.024;2023-03-08T02:59:04;96796.47;;;5.22;52.41
72587;BME280;60621;49.576;11.024;2023-03-08T03:00:06;96804.44;;;5.33;52.14
72587;BME280;60621;49.576;11.024;2023-03-08T03:01:12;96805.59;;;5.35;52.24
72587;BME280;60621;49.576;11.024;2023-03-08T03:02:14;96806.69;;;5.34;51.94
72587;BME280;60621;49.576;11.024;2023-03-08T03:03:16;96815.72;;;5.37;52.20
72587;BME280;60621;49.576;11.024;2023-03-08T03:04:17;96818.72;;;5.39;51.97
72587;BME280;60621;49.576;11.024;2023-03-08T03:05:19;96817.91;;;5.35;52.35
72587;BME280;60621;49.576;11.024;2023-03-08T03:06:21;96811.50;;;5.29;52.24
72587;BME280;60621;49.576;11.024;2023-03-08T03:07:23;96814.91;;;5.33;52.52
72587;BME280;60621;49.576;11.024;2023-03-08T03:08:24;96813.44;;;5.35;52.03
72587;BME280;60621;49.576;11.024;2023-03-08T03:09:27;96811.06;;;5.27;52.54
72587;BME280;60621;49.576;11.024;2023-03-08T03:10:29;96818.16;;;5.26;52.55
72587;BME280;60621;49.576;11.024;2023-03-08T03:11:30;96807.44;;;5.35;52.25
72587;BME280;60621;49.576;11.024;2023-03-08T03:12:32;96815.16;;;5.24;52.79
72587;BME280;60621;49.576;11.024;2023-03-08T03:13:33;96804.09;;;5.34;52.14
72587;BME280;60621;49.576;11.024;2023-03-08T03:14:35;96809.72;;;5.36;52.37
72587;BME280;60621;49.576;11.024;2023-03-08T03:15:37;96813.00;;;5.30;52.35
72587;BME280;60621;49.576;11.024;2023-03-08T03:16:39;96811.56;;;5.36;52.34
72587;BME280;60621;49.576;11.024;2023-03-08T03:17:41;96819.47;;;5.39;52.51
72587;BME280;60621;49.576;11.024;2023-03-08T03:18:42;96815.09;;;5.47;52.03
72587;BME280;60621;49.576;11.024;2023-03-08T03:19:44;96809.09;;;5.47;52.38
72587;BME280;60621;49.576;11.024;2023-03-08T03:20:45;96804.31;;;5.52;51.73
72587;BME280;60621;49.576;11.024;2023-03-08T03:21:47;96809.59;;;5.59;51.85
72587;BME280;60621;49.576;11.024;2023-03-08T03:22:48;96802.06;;;5.54;51.95
72587;BME280;60621;49.576;11.024;2023-03-08T03:23:50;96803.78;;;5.39;51.92
72587;BME280;60621;49.576;11.024;2023-03-08T03:24:52;96797.75;;;5.35;52.15
72587;BME280;60621;49.576;11.024;2023-03-08T03:25:53;96798.69;;;5.20;52.42
72587;BME280;60621;49.576;11.024;2023-03-08T03:26:54;96793.81;;;5.19;52.66
72587;BME280;60621;49.576;11.024;2023-03-08T03:27:56;96811.38;;;5.18;52.55
72587;BME280;60621;49.576;11.024;2023-03-08T03:28:58;96798.13;;;5.07;52.66
72587;BME280;60621;49.576;11.024;2023-03-08T03:29:59;96796.25;;;5.04;52.61
72587;BME280;60621;49.576;11.024;2023-03-08T03:31:06;96796.59;;;5.03;52.63
72587;BME280;60621;49.576;11.024;2023-03-08T03:32:07;96796.25;;;5.04;52.97
72587;BME280;60621;49.576;11.024;2023-03-08T03:33:09;96799.16;;;4.99;52.78
72587;BME280;60621;49.576;11.024;2023-03-08T03:34:10;96787.91;;;4.95;52.79
72587;BME280;60621;49.576;11.024;2023-03-08T03:35:12;96778.88;;;4.89;52.84
72587;BME280;60621;49.576;11.024;2023-03-08T03:36:16;96781.63;;;5.00;53.05
72587;BME280;60621;49.576;11.024;2023-03-08T03:37:18;96786.94;;;5.07;52.78
72587;BME280;60621;49.576;11.024;2023-03-08T03:38:20;96789.81;;;4.98;52.72
72587;BME280;60621;49.576;11.024;2023-03-08T03:39:21;96785.94;;;4.88;52.60
72587;BME280;60621;49.576;11.024;2023-03-08T03:40:23;96785.25;;;4.92;53.15
72587;BME280;60621;49.576;11.024;2023-03-08T03:41:24;96797.38;;;5.03;53.03
72587;BME280;60621;49.576;11.024;2023-03-08T03:42:26;96794.03;;;5.06;52.82
72587;BME280;60621;49.576;11.024;2023-03-08T03:43:28;96789.22;;;5.08;52.26
72587;BME280;60621;49.576;11.024;2023-03-08T03:44:30;96797.69;;;5.02;52.86
72587;BME280;60621;49.576;11.024;2023-03-08T03:45:31;96792.03;;;4.96;52.69
72587;BME280;60621;49.576;11.024;2023-03-08T03:46:33;96788.72;;;4.99;52.75
72587;BME280;60621;49.576;11.024;2023-03-08T03:47:35;96791.47;;;5.10;52.78
72587;BME280;60621;49.576;11.024;2023-03-08T03:48:36;96794.03;;;5.06;52.40
72587;BME280;60621;49.576;11.024;2023-03-08T03:49:38;96795.44;;;5.00;52.73
72587;BME280;60621;49.576;11.024;2023-03-08T03:50:39;96790.28;;;5.04;52.62
72587;BME280;60621;49.576;11.024;2023-03-08T03:51:41;96794.59;;;4.93;52.80
72587;BME280;60621;49.576;11.024;2023-03-08T03:52:43;96795.03;;;4.98;52.58
72587;BME280;60621;49.576;11.024;2023-03-08T03:53:45;96790.09;;;4.93;52.81
72587;BME280;60621;49.576;11.024;2023-03-08T03:54:46;96801.28;;;4.90;52.94
72587;BME280;60621;49.576;11.024;2023-03-08T03:55:48;96796.09;;;4.94;53.02
72587;BME280;60621;49.576;11.024;2023-03-08T03:56:50;96796.25;;;5.04;52.73
72587;BME280;60621;49.576;11.024;2023-03-08T03:57:51;96795.44;;;5.00;52.49
72587;BME280;60621;49.576;11.024;2023-03-08T03:58:53;96795.81;;;4.99;52.34
72587;BME280;60621;49.576;11.024;2023-03-08T03:59:58;96798.59;;;5.13;51.97
72587;BME280;60621;49.576;11.024;2023-03-08T04:00:59;96799.25;;;5.06;52.13
72587;BME280;60621;49.576;11.024;2023-03-08T04:02:01;96788.66;;;4.96;52.50
72587;BME280;60621;49.576;11.024;2023-03-08T04:03:02;96796.31;;;4.81;52.62
72587;BME280;60621;49.576;11.024;2023-03-08T04:04:04;96790.94;;;4.71;52.65
72587;BME280;60621;49.576;11.024;2023-03-08T04:05:06;96786.06;;;4.69;52.79
72587;BME280;60621;49.576;11.024;2023-03-08T04:06:19;96784.66;;;4.75;52.73
72587;BME280;60621;49.576;11.024;2023-03-08T04:07:21;96782.44;;;4.77;52.82
72587;BME280;60621;49.576;11.024;2023-03-08T04:08:23;96785.44;;;4.79;52.72
72587;BME280;60621;49.576;11.024;2023-03-08T04:09:25;96783.09;;;4.71;52.65
72587;BME280;60621;49.576;11.024;2023-03-08T04:10:26;96782.63;;;4.65;53.33
72587;BME280;60621;49.576;11.024;2023-03-08T04:11:31;96782.00;;;4.72;52.87
72587;BME280;60621;49.576;11.024;2023-03-08T04:12:33;96781.69;;;4.77;53.08
72587;BME280;60621;49.576;11.024;2023-03-08T04:13:35;96789.34;;;4.89;52.58
72587;BME280;60621;49.576;11.024;2023-03-08T04:14:37;96785.59;;;4.90;52.30
72587;BME280;60621;49.576;11.024;2023-03-08T04:15:40;96784.75;;;4.82;52.58
72587;BME280;60621;49.576;11.024;2023-03-08T04:16:41;96783.31;;;4.85;52.84
72587;BME280;60621;49.576;11.024;2023-03-08T04:17:43;96782.94;;;4.86;52.48
72587;BME280;60621;49.576;11.024;2023-03-08T04:18:45;96790.59;;;4.99;52.80
72587;BME280;60621;49.576;11.024;2023-03-08T04:19:48;96780.03;;;4.92;52.25
72587;BME280;60621;49.576;11.024;2023-03-08T04:20:50;96778.91;;;4.93;52.46
72587;BME280;60621;49.576;11.024;2023-03-08T04:21:51;96786.66;;;4.85;52.58
72587;BME280;60621;49.576;11.024;2023-03-08T04:22:53;96789.16;;;4.78;52.57
72587;BME280;60621;49.576;11.024;2023-03-08T04:23:55;96788.34;;;4.71;52.50
72587;BME280;60621;49.576;11.024;2023-03-08T04:25:01;96788.28;;;4.67;52.94
72587;BME280;60621;49.576;11.024;2023-03-08T04:26:03;96781.25;;;4.71;53.10
72587;BME280;60621;49.576;11.024;2023-03-08T04:27:04;96785.41;;;4.76;52.82
72587;BME280;60621;49.576;11.024;2023-03-08T04:28:06;96776.16;;;4.82;52.72
72587;BME280;60621;49.576;11.024;2023-03-08T04:29:07;96775.28;;;4.74;52.61
72587;BME280;60621;49.576;11.024;2023-03-08T04:30:09;96776.16;;;4.82;52.89
72587;BME280;60621;49.576;11.024;2023-03-08T04:31:19;96780.22;;;4.79;52.43
72587;BME280;60621;49.576;11.024;2023-03-08T04:32:21;96772.59;;;4.67;52.63
72587;BME280;60621;49.576;11.024;2023-03-08T04:33:22;96770.78;;;4.71;52.81
72587;BME280;60621;49.576;11.024;2023-03-08T04:34:25;96782.06;;;4.79;52.92
72587;BME280;60621;49.576;11.024;2023-03-08T04:35:26;96770.94;;;4.82;52.46
72587;BME280;60621;49.576;11.024;2023-03-08T04:36:28;96773.19;;;4.83;52.52
72587;BME280;60621;49.576;11.024;2023-03-08T04:37:30;96772.09;;;4.84;52.76
72587;BME280;60621;49.576;11.024;2023-03-08T04:38:32;96761.16;;;4.75;52.56
72587;BME280;60621;49.576;11.024;2023-03-08T04:39:36;96761.41;;;4.67;52.67
72587;BME280;60621;49.576;11.024;2023-03-08T04:40:38;96766.13;;;4.57;53.13
72587;BME280;60621;49.576;11.024;2023-03-08T04:41:59;96767.44;;;4.71;52.95
72587;BME280;60621;49.576;11.024;2023-03-08T04:43:01;96758.47;;;4.72;52.85
72587;BME280;60621;49.576;11.024;2023-03-08T04:44:03;96759.44;;;4.60;52.70
72587;BME280;60621;49.576;11.024;2023-03-08T04:45:04;96760.34;;;4.45;53.23
72587;BME280;60621;49.576;11.024;2023-03-08T04:46:06;96756.09;;;4.36;53.55
72587;BME280;60621;49.576;11.024;2023-03-08T04:47:08;96758.13;;;4.47;53.20
72587;BME280;60621;49.576;11.024;2023-03-08T04:48:10;96753.38;;;4.52;53.15
72587;BME280;60621;49.576;11.024;2023-03-08T04:49:12;96753.41;;;4.56;53.00
72587;BME280;60621;49.576;11.024;2023-03-08T04:50:13;96759.91;;;4.66;53.19
72587;BME280;60621;49.576;11.024;2023-03-08T04:51:15;96753.88;;;4.61;52.78
72587;BME280;60621;49.576;11.024;2023-03-08T04:52:17;96750.03;;;4.55;52.90
72587;BME280;60621;49.576;11.024;2023-03-08T04:53:19;96744.78;;;4.52;53.03
72587;BME280;60621;49.576;11.024;2023-03-08T04:54:20;96749.75;;;4.60;53.02
72587;BME280;60621;49.576;11.024;2023-03-08T04:55:22;96738.09;;;4.54;52.95
72587;BME280;60621;49.576;11.024;2023-03-08T04:56:23;96744.06;;;4.55;53.52
72587;BME280;60621;49.576;11.024;2023-03-08T04:57:25;96739.13;;;4.50;53.40
72587;BME280;60621;49.576;11.024;2023-03-08T04:58:28;96741.38;;;4.48;53.68
72587;BME280;60621;49.576;11.024;2023-03-08T04:59:29;96735.09;;;4.52;52.91
72587;BME280;60621;49.576;11.024;2023-03-08T05:00:31;96745.63;;;4.59;53.25
72587;BME280;60621;49.576;11.024;2023-03-08T05:01:32;96742.00;;;4.68;52.90
72587;BME280;60621;49.576;11.024;2023-03-08T05:02:34;96750.03;;;4.55;53.23
72587;BME280;60621;49.576;11.024;2023-03-08T05:03:36;96739.44;;;4.45;53.35
72587;BME280;60621;49.576;11.024;2023-03-08T05:04:37;96738.69;;;4.44;53.29
72587;BME280;60621;49.576;11.024;2023-03-08T05:05:45;96732.78;;;4.47;53.41
72587;BME280;60621;49.576;11.024;2023-03-08T05:06:47;96739.66;;;4.59;53.89
72587;BME280;60621;49.576;11.024;2023-03-08T05:07:49;96740.16;;;4.68;53.26
72587;BME280;60621;49.576;11.024;2023-03-08T05:08:51;96731.25;;;4.73;53.04
72587;BME280;60621;49.576;11.024;2023-03-08T05:09:53;96736.38;;;4.66;52.65
72587;BME280;60621;49.576;11.024;2023-03-08T05:10:56;96736.03;;;4.67;52.63
72587;BME280;60621;49.576;11.024;2023-03-08T05:12:01;96735.28;;;4.67;52.99
72587;BME280;60621;49.576;11.024;2023-03-08T05:13:02;96728.94;;;4.68;53.16
72587;BME280;60621;49.576;11.024;2023-03-08T05:14:04;96729.31;;;4.66;52.96
72587;BME280;60621;49.576;11.024;2023-03-08T05:15:06;96716.31;;;4.73;52.91
72587;BME280;60621;49.576;11.024;2023-03-08T05:16:07;96722.72;;;4.76;53.39
72587;BME280;60621;49.576;11.024;2023-03-08T05:17:09;96717.06;;;4.74;52.94
72587;BME280;60621;49.576;11.024;2023-03-08T05:18:11;96714.91;;;4.79;53.07
72587;BME280;60621;49.576;11.024;2023-03-08T05:19:12;96706.00;;;4.84;52.58
72587;BME280;60621;49.576;11.024;2023-03-08T05:20:14;96708.22;;;4.82;53.00
72587;BME280;60621;49.576;11.024;2023-03-08T05:21:18;96707.88;;;4.83;52.93
72587;BME280;60621;49.576;11.024;2023-03-08T05:22:20;96706.38;;;4.82;53.11
72587;BME280;60621;49.576;11.024;2023-03-08T05:23:24;96709.34;;;4.81;52.75
72587;BME280;60621;49.576;11.024;2023-03-08T05:24:28;96711.22;;;4.84;52.99
72587;BME280;60621;49.576;11.024;2023-03-08T05:25:30;96704.25;;;4.92;52.23
72587;BME280;60621;49.576;11.024;2023-03-08T05:26:32;96707.91;;;4.87;52.72
72587;BME280;60621;49.576;11.024;2023-03-08T05:27:34;96706.91;;;4.95;52.09
72587;BME280;60621;49.576;11.024;2023-03-08T05:28:36;96715.13;;;4.97;51.90
72587;BME280;60621;49.576;11.024;2023-03-08T05:29:38;96713.56;;;4.93;52.27
72587;BME280;60621;49.576;11.024;2023-03-08T05:30:39;96712.78;;;4.88;52.36
72587;BME280;60621;49.576;11.024;2023-03-08T05:31:41;96710.59;;;4.91;52.01